Time;durP1;ratioP1;P1;durP2;ratioP2;P2;SDS_P1;SDS_P2;PMS_P1;PMS_P2;Temp;Humidity;BMP_temperature;BMP_pressure;BME280_temperature;BME280_humidity;BME280_pressure;Samples;Min_cycle;Max_cycle;Signal;HPM_P1;HPM_P2
2022/06/05 00:01:09;;;;;;;9.70;8.15;;;;;;;20.50;49.34;101590.69;5098919;28;20020;-61
2022/06/05 00:03:47;;;;;;;11.00;8.55;;;;;;;20.43;49.58;101597.78;5069899;28;20491;-61
2022/06/05 00:06:32;;;;;;;17.27;8.23;;;;;;;20.46;49.47;101597.19;5095817;28;20802;-61
2022/06/05 00:09:21;;;;;;;10.05;7.93;;;;;;;20.45;49.47;101596.34;5088892;28;20122;-60
2022/06/05 00:11:59;;;;;;;8.32;7.53;;;;;;;20.37;49.60;101582.94;5094670;27;20028;-61
2022/06/05 00:14:24;;;;;;;10.10;7.40;;;;;;;20.34;49.65;101575.91;5084570;28;20034;-61
2022/06/05 00:16:50;;;;;;;9.07;7.20;;;;;;;20.30;50.19;101566.38;5103615;28;20067;-61
2022/06/05 00:19:16;;;;;;;9.80;7.18;;;;;;;20.32;49.76;101571.72;5096583;28;20019;-61
2022/06/05 00:21:41;;;;;;;10.90;7.13;;;;;;;20.28;49.71;101571.50;5104244;28;20028;-61
2022/06/05 00:24:10;;;;;;;10.82;7.57;;;;;;;20.20;50.03;101571.28;5108776;28;20039;-61
2022/06/05 00:26:54;;;;;;;10.50;7.28;;;;;;;20.20;49.87;101572.16;5098681;28;20398;-61
2022/06/05 00:29:35;;;;;;;7.55;6.85;;;;;;;20.21;49.92;101571.00;5098585;28;20032;-61
2022/06/05 00:32:25;;;;;;;7.97;7.17;;;;;;;20.16;49.92;101559.81;5107976;28;20081;-61
2022/06/05 00:34:51;;;;;;;7.78;7.00;;;;;;;20.14;49.94;101556.44;5097402;28;20407;-61
2022/06/05 00:37:23;;;;;;;8.57;7.13;;;;;;;20.14;50.28;101547.16;5098038;28;20022;-61
2022/06/05 00:40:26;;;;;;;8.57;7.18;;;;;;;20.19;49.96;101544.25;5084873;28;20025;-61
2022/06/05 00:42:52;;;;;;;9.38;6.82;;;;;;;20.18;50.28;101534.97;5085351;28;20474;-61
2022/06/05 00:45:19;;;;;;;9.73;7.00;;;;;;;20.14;50.17;101538.69;5096636;28;20122;-61
2022/06/05 00:47:45;;;;;;;7.53;6.82;;;;;;;20.13;50.13;101537.84;5106436;28;20035;-61
2022/06/05 00:50:14;;;;;;;8.32;7.50;;;;;;;20.12;50.24;101541.78;5090823;28;20157;-61
2022/06/05 00:52:43;;;;;;;8.20;7.15;;;;;;;20.16;50.09;101544.84;5088078;28;20031;-61
2022/06/05 00:55:10;;;;;;;7.28;6.57;;;;;;;20.15;50.16;101540.34;5100400;28;20032;-60
2022/06/05 00:57:37;;;;;;;9.27;6.88;;;;;;;20.08;50.10;101538.75;5090762;28;20060;-61
2022/06/05 01:00:13;;;;;;;8.95;6.97;;;;;;;20.09;50.21;101533.97;5095158;28;20040;-61
2022/06/05 01:02:41;;;;;;;7.68;6.90;;;;;;;20.08;50.09;101535.06;5099951;28;20047;-61
2022/06/05 01:05:08;;;;;;;7.97;7.03;;;;;;;20.13;50.20;101549.13;5104665;28;20027;-61
2022/06/05 01:07:33;;;;;;;8.50;6.45;;;;;;;20.14;50.24;101544.31;5112431;28;20074;-61
2022/06/05 01:09:59;;;;;;;7.75;6.88;;;;;;;20.14;50.05;101542.34;5095982;28;20055;-61
2022/06/05 01:12:39;;;;;;;6.80;6.07;;;;;;;20.08;50.24;101541.56;5110584;28;20058;-61
2022/06/05 01:15:10;;;;;;;7.30;6.60;;;;;;;20.13;50.21;101540.66;5104524;28;20073;-61
2022/06/05 01:17:56;;;;;;;8.85;6.45;;;;;;;20.14;50.25;101544.31;5098998;28;20493;-61
2022/06/05 01:20:58;;;;;;;8.45;7.00;;;;;;;20.11;50.22;101557.03;5102218;28;20027;-61
2022/06/05 01:23:44;;;;;;;7.43;6.78;;;;;;;20.04;50.26;101579.97;5104370;28;20489;-61
2022/06/05 01:26:22;;;;;;;7.32;6.63;;;;;;;20.09;50.22;101610.06;5098138;28;20028;-61
2022/06/05 01:29:04;;;;;;;8.30;6.57;;;;;;;20.08;50.34;101580.16;5098796;28;20038;-61
2022/06/05 01:31:41;;;;;;;7.65;6.82;;;;;;;20.14;50.37;101584.63;5074646;28;20032;-60
2022/06/05 01:34:29;;;;;;;7.05;6.35;;;;;;;20.10;50.56;101618.19;5108807;28;20111;-61
2022/06/05 01:37:03;;;;;;;8.07;6.50;;;;;;;20.13;50.61;101596.22;5106066;28;20360;-61
2022/06/05 01:39:38;;;;;;;7.45;6.72;;;;;;;20.15;50.73;101544.00;5104025;28;20024;-61
2022/06/05 01:42:13;;;;;;;7.15;6.45;;;;;;;20.06;51.01;101562.72;5080593;28;20036;-61
2022/06/05 01:44:42;;;;;;;6.80;6.18;;;;;;;20.07;51.14;101576.50;5107513;28;20066;-61
2022/06/05 01:47:17;;;;;;;7.30;6.60;;;;;;;20.06;51.32;101574.00;5103627;28;20067;-61
2022/06/05 01:49:51;;;;;;;6.75;6.13;;;;;;;20.10;51.22;101564.66;5106125;28;20929;-60
2022/06/05 01:52:40;;;;;;;10.80;6.70;;;;;;;20.20;51.22;101554.38;5096964;28;20020;-61
2022/06/05 01:55:15;;;;;;;8.57;7.00;;;;;;;20.12;51.24;101538.97;5107094;28;20067;-61
2022/06/05 01:57:40;;;;;;;10.27;7.00;;;;;;;20.13;51.13;101539.84;5095201;28;20032;-61
2022/06/05 02:00:12;;;;;;;7.03;6.32;;;;;;;20.08;51.36;101537.91;5097099;28;20032;-60
2022/06/05 02:02:52;;;;;;;8.38;6.63;;;;;;;20.10;50.86;101522.38;5083863;28;20042;-61
2022/06/05 02:05:23;;;;;;;7.90;7.20;;;;;;;20.09;51.13;101512.25;5108978;28;20051;-61
2022/06/05 02:07:54;;;;;;;9.38;7.35;;;;;;;20.08;51.28;101502.13;5082069;28;20036;-61
2022/06/05 02:10:35;;;;;;;8.07;6.85;;;;;;;20.13;51.10;101500.38;5090845;28;20050;-61
2022/06/05 02:13:00;;;;;;;7.45;6.53;;;;;;;20.09;51.10;101500.97;5086184;28;20037;-61
2022/06/05 02:15:28;;;;;;;8.77;7.13;;;;;;;20.08;51.18;101487.16;5098637;28;20104;-61
2022/06/05 02:17:56;;;;;;;10.02;7.85;;;;;;;20.04;51.72;101477.63;5103720;28;20024;-61
2022/06/05 02:20:22;;;;;;;10.77;7.78;;;;;;;20.06;51.59;101462.13;5079751;28;20020;-61
2022/06/05 02:22:50;;;;;;;9.10;7.40;;;;;;;20.05;51.60;101468.06;5106488;28;20016;-61
2022/06/05 02:25:19;;;;;;;10.10;7.57;;;;;;;20.05;51.38;101457.63;5104256;28;20031;-61
2022/06/05 02:27:44;;;;;;;8.93;7.60;;;;;;;20.07;51.40;101454.50;5095820;28;20031;-61
2022/06/05 02:30:13;;;;;;;9.05;7.72;;;;;;;20.02;51.11;101446.97;5087775;28;20035;-61
2022/06/05 02:32:57;;;;;;;9.93;7.82;;;;;;;20.01;50.95;101442.47;5109009;28;20765;-61
2022/06/05 02:35:41;;;;;;;8.32;7.53;;;;;;;19.96;51.09;101433.22;5090270;28;20082;-61
2022/06/05 02:38:34;;;;;;;10.13;7.63;;;;;;;19.91;51.91;101430.50;5079037;28;20040;-62
2022/06/05 02:41:02;;;;;;;9.25;7.90;;;;;;;19.73;53.00;101416.09;5087067;28;20084;-63
2022/06/05 02:46:45;;;;;;;9.13;7.75;;;;;;;19.67;53.32;101397.56;5110793;28;20077;-62
2022/06/05 02:49:22;;;;;;;8.68;7.40;;;;;;;19.53;53.04;101400.25;5111163;28;20035;-61
2022/06/05 02:51:52;;;;;;;10.90;8.10;;;;;;;19.25;53.65;101399.13;5089405;27;20033;-62
2022/06/05 02:54:21;;;;;;;9.32;8.20;;;;;;;19.19;54.15;101377.00;5108482;28;20432;-62
2022/06/05 02:56:46;;;;;;;9.98;7.60;;;;;;;19.12;54.35;101369.75;5096567;28;20556;-62
2022/06/05 02:59:12;;;;;;;10.20;7.72;;;;;;;18.98;54.34;101370.72;5097480;28;20039;-61
2022/06/05 03:04:21;;;;;;;11.27;8.63;;;;;;;18.87;54.60;101358.75;5078189;28;20402;-61
2022/06/05 03:06:52;;;;;;;8.73;7.75;;;;;;;18.85;54.27;101361.84;5086805;28;20035;-62
2022/06/05 03:09:18;;;;;;;11.75;8.05;;;;;;;18.77;54.58;101356.88;5099467;27;20040;-62
2022/06/05 03:11:44;;;;;;;11.90;8.23;;;;;;;18.74;54.31;101348.19;5107827;28;20080;-62
2022/06/05 03:14:09;;;;;;;8.73;7.82;;;;;;;18.76;54.25;101346.78;5081582;28;20025;-62
2022/06/05 03:16:37;;;;;;;9.85;8.45;;;;;;;18.76;54.27;101348.75;5108475;28;20024;-62
2022/06/05 03:19:06;;;;;;;8.98;7.90;;;;;;;18.74;54.19;101337.78;5095379;28;20048;-60
2022/06/05 03:21:35;;;;;;;11.43;8.07;;;;;;;18.79;54.27;101349.00;5098801;28;20027;-61
2022/06/05 03:24:01;;;;;;;10.32;8.23;;;;;;;18.77;53.90;101356.88;5093652;28;20032;-61
2022/06/05 03:26:27;;;;;;;9.88;8.63;;;;;;;18.79;53.51;101357.44;5099275;28;20030;-61
2022/06/05 03:28:52;;;;;;;9.02;8.13;;;;;;;18.86;53.60;101360.75;5102916;28;20356;-61
2022/06/05 03:31:18;;;;;;;10.02;8.52;;;;;;;18.82;53.82;101362.47;5091537;28;20034;-61
2022/06/05 03:33:43;;;;;;;9.15;8.25;;;;;;;18.96;53.30;101373.03;5111934;28;20030;-61
2022/06/05 03:36:09;;;;;;;12.00;7.97;;;;;;;18.98;53.05;101379.16;5094541;28;20031;-61
2022/06/05 03:38:35;;;;;;;12.48;8.13;;;;;;;19.00;53.03;101390.97;5105864;28;20028;-61
2022/06/05 03:41:00;;;;;;;10.60;8.13;;;;;;;18.95;52.66;101386.25;5091333;28;20131;-60
2022/06/05 03:43:26;;;;;;;10.68;8.60;;;;;;;18.97;52.77;101386.78;5083380;28;20059;-60
2022/06/05 03:46:03;;;;;;;10.05;8.60;;;;;;;18.99;52.82;101378.88;5101802;28;20058;-60
2022/06/05 03:48:28;;;;;;;9.75;8.32;;;;;;;19.04;52.36;101376.00;5080610;28;20038;-61
2022/06/05 03:50:54;;;;;;;9.48;8.35;;;;;;;19.05;52.50;101376.84;5104126;28;20024;-61
2022/06/05 03:53:19;;;;;;;13.45;8.60;;;;;;;19.06;52.22;101384.16;5098840;28;20077;-62
2022/06/05 03:55:44;;;;;;;10.52;8.10;;;;;;;19.03;52.29;101382.78;5106418;28;20092;-61
2022/06/05 03:58:10;;;;;;;10.15;7.68;;;;;;;19.03;52.31;101379.13;5094121;28;20016;-60
2022/06/05 04:00:35;;;;;;;9.40;7.68;;;;;;;18.97;52.31;101383.13;5098541;28;20062;-60
2022/06/05 04:03:00;;;;;;;9.77;7.95;;;;;;;18.94;52.37;101387.38;5088349;28;20067;-61
2022/06/05 04:05:26;;;;;;;10.75;7.50;;;;;;;18.95;52.31;101382.59;5098106;28;20027;-60
2022/06/05 04:07:51;;;;;;;12.18;8.15;;;;;;;18.91;52.56;101381.53;5079618;28;20060;-60
2022/06/05 04:10:18;;;;;;;13.85;8.48;;;;;;;18.95;52.52;101380.63;5081234;28;20020;-60
2022/06/05 04:12:44;;;;;;;11.93;7.95;;;;;;;18.96;52.16;101373.03;5103775;28;20398;-61
2022/06/05 04:15:11;;;;;;;9.27;8.23;;;;;;;18.96;52.09;101373.03;5090992;28;20032;-60
2022/06/05 04:17:36;;;;;;;10.38;8.43;;;;;;;18.91;52.35;101364.63;5089006;28;20456;-61
2022/06/05 04:20:04;;;;;;;9.82;8.13;;;;;;;18.88;52.44;101366.91;5089491;28;20032;-61
2022/06/05 04:22:30;;;;;;;11.30;7.57;;;;;;;18.95;52.28;101363.75;5100419;28;20038;-61
2022/06/05 04:24:55;;;;;;;8.82;7.70;;;;;;;18.93;52.16;101356.72;5102512;28;20024;-61
2022/06/05 04:27:20;;;;;;;11.35;8.18;;;;;;;18.95;52.11;101357.28;5101807;28;20030;-61
2022/06/05 04:29:46;;;;;;;11.20;8.77;;;;;;;18.91;52.45;101353.38;5099963;28;20027;-61
2022/06/05 04:32:11;;;;;;;14.20;8.23;;;;;;;18.91;52.29;101359.84;5079129;28;20728;-61
2022/06/05 04:34:43;;;;;;;12.45;8.48;;;;;;;18.90;52.33;101360.97;5097446;28;20072;-61
2022/06/05 04:37:09;;;;;;;10.10;8.02;;;;;;;18.92;52.31;101355.88;5100016;28;20132;-61
2022/06/05 04:39:35;;;;;;;8.55;7.75;;;;;;;18.84;52.45;101359.34;5104768;28;20115;-61
2022/06/05 04:42:00;;;;;;;9.00;7.28;;;;;;;18.86;52.37;101354.25;5090514;28;20757;-63
2022/06/05 04:44:26;;;;;;;11.85;8.23;;;;;;;18.88;52.57;101355.66;5108454;28;20038;-60
2022/06/05 04:46:52;;;;;;;10.77;8.73;;;;;;;18.86;52.62;101363.56;5104224;28;20044;-60
2022/06/05 04:49:17;;;;;;;10.00;7.70;;;;;;;18.86;52.44;101346.69;5095930;28;20024;-60
2022/06/05 04:51:44;;;;;;;8.77;7.88;;;;;;;18.86;52.90;101351.44;5105841;28;20042;-60
2022/06/05 04:54:16;;;;;;;9.18;8.20;;;;;;;18.75;52.62;101350.72;5092028;28;20073;-60
2022/06/05 04:56:42;;;;;;;9.35;8.35;;;;;;;18.76;52.65;101360.84;5093953;28;20115;-60
2022/06/05 04:59:07;;;;;;;11.90;8.80;;;;;;;18.73;52.85;101361.41;5110643;28;20122;-60
2022/06/05 05:01:35;;;;;;;9.93;8.48;;;;;;;18.78;52.69;101354.91;5087171;28;20033;-60
2022/06/05 05:04:05;;;;;;;8.70;7.80;;;;;;;18.76;52.65;101366.47;5095254;28;20659;-61
2022/06/05 05:06:32;;;;;;;9.00;8.13;;;;;;;18.72;52.68;101364.53;5105453;28;20761;-60
2022/06/05 05:08:58;;;;;;;12.57;8.55;;;;;;;18.71;52.68;101355.25;5098532;28;20031;-61
2022/06/05 05:11:27;;;;;;;10.25;9.25;;;;;;;18.69;53.01;101368.75;5097860;28;20032;-61
2022/06/05 05:13:54;;;;;;;10.90;8.85;;;;;;;18.72;53.15;101365.38;5107013;28;20028;-61
2022/06/05 05:16:25;;;;;;;9.45;8.45;;;;;;;18.71;53.20;101369.31;5083163;28;20028;-61
2022/06/05 05:18:50;;;;;;;10.50;8.23;;;;;;;18.71;53.33;101366.50;5102548;28;20102;-61
2022/06/05 05:21:18;;;;;;;10.10;8.80;;;;;;;18.76;53.22;101366.47;5086372;28;20078;-61
2022/06/05 05:23:45;;;;;;;10.93;8.90;;;;;;;18.74;53.36;101362.25;5104428;28;20097;-61
2022/06/05 05:26:16;;;;;;;9.75;8.43;;;;;;;18.72;53.60;101370.16;5093316;28;20024;-60
2022/06/05 05:28:42;;;;;;;16.70;8.98;;;;;;;18.73;53.28;101364.22;5100987;28;20478;-61
2022/06/05 05:31:19;;;;;;;12.48;8.90;;;;;;;18.76;53.24;101369.28;5103212;28;20043;-60
2022/06/05 05:33:46;;;;;;;11.05;8.35;;;;;;;18.73;53.47;101360.59;5095236;28;20024;-60
2022/06/05 05:36:12;;;;;;;9.45;8.45;;;;;;;18.70;53.48;101366.75;5103326;28;20037;-60
2022/06/05 05:38:38;;;;;;;10.38;8.63;;;;;;;18.73;53.26;101369.84;5103513;28;20028;-60
2022/06/05 05:43:48;;;;;;;12.35;9.23;;;;;;;18.75;53.33;101363.97;5093490;28;20043;-60
2022/06/05 05:46:15;;;;;;;10.43;9.07;;;;;;;18.75;53.63;101361.97;5103114;28;20039;-61
2022/06/05 05:48:41;;;;;;;11.40;8.73;;;;;;;18.76;53.65;101365.63;5090899;28;20089;-61
2022/06/05 05:51:11;;;;;;;9.10;8.10;;;;;;;18.76;53.70;101369.28;5102052;28;20060;-61
2022/06/05 05:53:36;;;;;;;10.30;8.18;;;;;;;18.73;53.55;101364.22;5081391;28;20040;-61
2022/06/05 05:56:11;;;;;;;12.07;8.73;;;;;;;18.75;53.61;101359.16;5098153;28;20032;-61
2022/06/05 05:58:40;;;;;;;10.30;8.82;;;;;;;18.74;53.54;101349.03;5098444;28;20119;-61
2022/06/05 06:01:08;;;;;;;14.18;8.07;;;;;;;18.65;53.78;101343.19;5088624;28;20029;-61
2022/06/05 06:03:34;;;;;;;10.35;9.35;;;;;;;18.68;53.86;101347.38;5097213;28;20163;-61
2022/06/05 06:06:00;;;;;;;10.32;8.77;;;;;;;18.67;53.96;101331.66;5110692;28;20121;-61
2022/06/05 06:08:26;;;;;;;10.13;8.18;;;;;;;18.70;54.05;101331.06;5088546;28;20126;-61
2022/06/05 06:10:54;;;;;;;9.52;8.30;;;;;;;18.72;54.29;101327.97;5097854;28;20533;-61
2022/06/05 06:13:20;;;;;;;10.95;8.48;;;;;;;18.76;53.93;101321.47;5097328;27;20179;-61
2022/06/05 06:15:49;;;;;;;13.30;8.20;;;;;;;18.77;53.94;101320.31;5104118;28;20366;-61
2022/06/05 06:18:15;;;;;;;10.48;9.13;;;;;;;18.76;53.98;101313.03;5095846;28;20043;-61
2022/06/05 06:20:43;;;;;;;11.95;9.00;;;;;;;18.68;54.58;101302.41;5104780;28;20035;-61
2022/06/05 06:23:09;;;;;;;10.18;8.38;;;;;;;18.72;54.47;101311.94;5100186;28;20035;-61
2022/06/05 06:25:38;;;;;;;11.98;8.00;;;;;;;18.78;54.10;101305.13;5093006;28;20040;-62
2022/06/05 06:28:05;;;;;;;13.93;9.80;;;;;;;18.73;54.38;101301.53;5094912;28;20215;-61
2022/06/05 06:30:33;;;;;;;11.40;9.60;;;;;;;18.71;54.53;101298.19;5100761;28;20447;-61
2022/06/05 06:33:01;;;;;;;10.48;9.48;;;;;;;18.76;54.59;101287.72;5101348;28;20024;-60
2022/06/05 06:35:27;;;;;;;11.07;8.90;;;;;;;18.69;54.54;101287.19;5097158;28;20036;-60
2022/06/05 06:37:55;;;;;;;11.63;8.90;;;;;;;18.71;54.72;101284.97;5109556;28;20390;-60
2022/06/05 06:40:21;;;;;;;13.52;9.15;;;;;;;18.60;54.71;101280.56;5079318;28;20110;-60
2022/06/05 06:42:46;;;;;;;12.55;9.30;;;;;;;18.60;54.98;101267.31;5107544;28;20107;-60
2022/06/05 06:45:12;;;;;;;10.95;8.77;;;;;;;18.67;54.92;101271.75;5112243;28;20492;-61
2022/06/05 06:47:37;;;;;;;12.30;9.48;;;;;;;18.69;55.17;101256.25;5100692;28;20032;-60
2022/06/05 06:50:03;;;;;;;11.00;9.70;;;;;;;18.67;55.19;101269.78;5093693;28;20027;-61
2022/06/05 06:52:29;;;;;;;12.55;9.63;;;;;;;18.64;55.50;101264.75;5085566;28;20016;-59
2022/06/05 06:54:57;;;;;;;12.70;8.85;;;;;;;18.64;55.52;101251.53;5102113;28;20032;-60
2022/06/05 06:57:22;;;;;;;10.85;9.25;;;;;;;18.68;55.58;101273.44;5090530;28;20020;-61
2022/06/05 06:59:50;;;;;;;9.93;8.93;;;;;;;18.74;55.56;101273.09;5079346;28;20120;-61
2022/06/05 07:02:15;;;;;;;11.48;9.35;;;;;;;18.81;55.83;101276.41;5077752;28;20031;-61
2022/06/05 07:04:41;;;;;;;10.38;9.18;;;;;;;18.77;55.90;101268.88;5086104;28;20035;-60
2022/06/05 07:07:09;;;;;;;10.85;8.90;;;;;;;18.86;55.75;101265.13;5094683;28;20028;-60
2022/06/05 07:09:34;;;;;;;9.77;8.80;;;;;;;18.95;55.62;101256.00;5079318;28;20116;-61
2022/06/05 07:11:59;;;;;;;10.45;8.90;;;;;;;18.98;55.58;101258.19;5097080;28;20534;-60
2022/06/05 07:14:26;;;;;;;10.32;9.32;;;;;;;19.02;55.24;101248.88;5107510;28;20529;-61
2022/06/05 07:16:53;;;;;;;11.50;9.10;;;;;;;19.08;55.40;101249.66;5093308;28;20032;-61
2022/06/05 07:19:18;;;;;;;13.00;10.63;;;;;;;19.06;55.75;101243.47;5097929;28;20024;-61
2022/06/05 07:21:47;;;;;;;11.15;9.85;;;;;;;19.12;55.18;101253.53;5093644;28;20032;-61
2022/06/05 07:24:12;;;;;;;10.40;9.23;;;;;;;19.20;55.00;101252.03;5107436;28;20070;-60
2022/06/05 07:26:38;;;;;;;10.68;9.65;;;;;;;19.24;55.54;101239.03;5086773;28;20064;-60
2022/06/05 07:29:05;;;;;;;12.00;9.25;;;;;;;19.27;55.41;101238.44;5090085;28;20360;-61
2022/06/05 07:31:31;;;;;;;10.18;9.13;;;;;;;19.31;55.22;101233.88;5100086;28;20114;-61
2022/06/05 07:33:58;;;;;;;10.13;9.13;;;;;;;19.38;55.42;101228.72;5111087;28;20118;-61
2022/06/05 07:36:25;;;;;;;11.65;8.98;;;;;;;19.43;55.68;101224.97;5080070;28;20019;-61
2022/06/05 07:38:50;;;;;;;10.55;9.15;;;;;;;19.45;55.59;101223.50;5100514;28;20108;-61
2022/06/05 07:41:22;;;;;;;11.88;10.02;;;;;;;19.48;55.33;101222.09;5089621;28;20509;-61
2022/06/05 07:43:50;;;;;;;11.93;9.70;;;;;;;19.54;55.22;101223.69;5082902;28;20035;-60
2022/06/05 07:46:17;;;;;;;11.27;9.65;;;;;;;19.53;55.57;101219.19;5090533;28;20042;-61
2022/06/05 07:48:42;;;;;;;9.88;8.95;;;;;;;19.58;55.92;101219.13;5080713;28;20036;-61
2022/06/05 07:56:48;;;;;;;13.65;10.38;;;;;;;19.67;55.82;101208.88;5075069;28;20105;-60
2022/06/05 07:59:14;;;;;;;10.18;9.18;;;;;;;19.71;55.88;101198.66;5087806;28;20016;-60
2022/06/05 08:01:39;;;;;;;12.40;9.82;;;;;;;19.74;55.91;101202.84;5077604;28;20510;-60
2022/06/05 08:04:05;;;;;;;10.90;9.80;;;;;;;19.75;55.51;101190.44;5078522;28;20051;-61
2022/06/05 08:06:34;;;;;;;11.48;10.38;;;;;;;19.76;55.96;101190.13;5083449;28;20032;-60
2022/06/05 08:09:04;;;;;;;10.50;9.27;;;;;;;19.84;55.63;101183.78;5077115;28;20036;-60
2022/06/05 08:11:30;;;;;;;8.05;7.25;;;;;;;19.95;55.33;101186.44;5074401;28;20036;-61
2022/06/05 08:13:55;;;;;;;6.00;5.43;;;;;;;20.08;54.84;101191.28;5082786;28;20055;-60
2022/06/05 08:16:21;;;;;;;6.15;5.35;;;;;;;20.21;54.14;101189.66;5081205;28;21739;-61
2022/06/05 08:18:46;;;;;;;8.00;7.18;;;;;;;20.27;54.13;101180.78;5087450;28;20023;-61
2022/06/05 08:21:11;;;;;;;10.30;9.32;;;;;;;20.37;55.07;101187.38;5082212;28;20075;-61
2022/06/05 08:23:37;;;;;;;8.00;7.20;;;;;;;20.52;54.45;101185.13;5088082;28;20036;-61
2022/06/05 08:26:03;;;;;;;10.05;9.23;;;;;;;20.64;54.82;101176.16;5087518;28;20036;-61
2022/06/05 08:28:28;;;;;;;9.82;8.77;;;;;;;20.72;54.89;101169.78;5091772;28;20043;-61
2022/06/05 08:30:54;;;;;;;11.27;9.65;;;;;;;20.82;54.78;101175.19;5085459;28;20024;-60
2022/06/05 08:33:20;;;;;;;12.02;10.85;;;;;;;20.86;54.45;101171.75;5080270;28;20035;-60
2022/06/05 08:35:46;;;;;;;9.60;8.38;;;;;;;20.92;54.40;101181.78;5088036;28;20020;-61
2022/06/05 08:41:26;;;;;;;13.10;11.55;;;;;;;20.92;54.58;101181.78;5082079;28;20070;-61
2022/06/05 08:44:26;;;;;;;11.52;9.68;;;;;;;21.01;54.71;101179.88;5078522;28;20025;-60
2022/06/05 08:47:07;;;;;;;11.15;8.93;;;;;;;21.01;54.55;101186.38;5081698;28;20040;-60
2022/06/05 08:49:47;;;;;;;12.32;9.98;;;;;;;21.02;54.92;101179.56;5077190;28;20028;-62
2022/06/05 08:52:32;;;;;;;11.82;9.73;;;;;;;21.05;55.11;101184.59;5084440;28;20043;-61
2022/06/05 08:55:12;;;;;;;10.30;9.30;;;;;;;21.00;54.31;101184.69;5089168;28;20028;-61
2022/06/05 08:57:45;;;;;;;13.95;11.13;;;;;;;20.97;55.25;101190.13;5085765;28;20028;-61
2022/06/05 09:00:24;;;;;;;11.80;10.70;;;;;;;20.94;55.88;101188.78;5088290;28;20020;-61
2022/06/05 09:03:19;;;;;;;12.63;11.32;;;;;;;20.91;54.71;101188.59;5076008;28;20040;-64
2022/06/05 09:05:47;;;;;;;11.68;10.50;;;;;;;20.84;55.97;101187.00;5074138;28;20605;-64
2022/06/05 09:08:20;;;;;;;9.48;8.50;;;;;;;20.85;55.29;101187.84;5079557;28;20041;-62
2022/06/05 09:10:57;;;;;;;12.25;11.05;;;;;;;20.83;55.71;101193.81;5074278;28;20471;-62
2022/06/05 09:13:42;;;;;;;11.80;10.70;;;;;;;20.83;55.53;101190.16;5077506;28;20085;-63
2022/06/05 09:16:20;;;;;;;9.70;8.73;;;;;;;20.79;55.84;101189.13;5071107;28;20031;-64
2022/06/05 09:18:48;;;;;;;10.50;9.50;;;;;;;20.82;56.21;101180.84;5077587;28;20059;-63
2022/06/05 09:21:26;;;;;;;11.32;10.23;;;;;;;20.86;56.05;101183.03;5080264;28;20745;-64
2022/06/05 09:24:07;;;;;;;11.50;10.43;;;;;;;20.83;56.70;101185.34;5082021;28;20034;-64
2022/06/05 09:26:56;;;;;;;11.27;10.07;;;;;;;20.84;56.48;101181.38;5080465;28;20046;-64
2022/06/05 09:29:42;;;;;;;11.43;10.27;;;;;;;20.87;56.64;101181.88;5085595;28;20020;-63
2022/06/05 09:32:38;;;;;;;12.63;11.38;;;;;;;20.85;56.60;101173.75;5080144;28;20024;-65
2022/06/05 09:35:47;;;;;;;14.85;11.10;;;;;;;20.88;56.32;101175.94;5078523;28;20040;-62
2022/06/05 09:38:28;;;;;;;10.18;9.25;;;;;;;20.89;56.71;101173.94;5062378;28;20119;-64
2022/06/05 09:40:59;;;;;;;10.40;9.35;;;;;;;20.92;56.96;101168.50;5083276;28;20371;-64
2022/06/05 09:43:49;;;;;;;13.00;10.98;;;;;;;20.92;56.69;101170.50;5083062;28;20054;-64
2022/06/05 09:46:52;;;;;;;11.13;10.02;;;;;;;20.91;56.72;101166.03;5083412;28;20467;-64
2022/06/05 09:49:25;;;;;;;11.23;10.23;;;;;;;20.88;57.06;101158.19;5085734;28;20449;-66
2022/06/05 09:51:57;;;;;;;9.65;8.80;;;;;;;20.92;57.30;101160.06;5081354;28;20029;-64
2022/06/05 09:54:27;;;;;;;11.65;10.60;;;;;;;20.91;57.36;101149.09;5080042;28;20111;-65
2022/06/05 10:00:33;;;;;;;11.13;10.20;;;;;;;20.91;56.99;101129.34;5086817;28;20082;-65
2022/06/05 10:03:05;;;;;;;12.25;10.25;;;;;;;20.89;57.38;101129.63;5080846;28;20155;-65
2022/06/05 10:05:32;;;;;;;;;;;;;;;20.96;56.63;101121.59;5081726;28;20158;-64
2022/06/05 10:08:14;;;;;;;10.82;9.82;;;;;;;20.94;57.54;101129.50;5082840;28;19998;-62
2022/06/05 10:10:42;;;;;;;12.95;11.55;;;;;;;20.89;58.63;101124.00;5079124;28;20115;-63
2022/06/05 10:13:21;;;;;;;13.48;10.25;;;;;;;20.91;58.30;101124.53;5089029;28;20089;-63
2022/06/05 10:15:58;;;;;;;12.23;11.02;;;;;;;20.92;58.91;101114.06;5084333;28;20027;-64
2022/06/05 10:18:47;;;;;;;12.05;10.57;;;;;;;20.94;58.43;101118.22;5084580;28;20339;-62
2022/06/05 10:21:14;;;;;;;11.23;10.25;;;;;;;20.92;59.44;101114.06;5083826;28;20077;-63
2022/06/05 10:23:51;;;;;;;13.95;12.45;;;;;;;20.90;60.34;101125.66;5085506;28;20040;-63
2022/06/05 10:26:28;;;;;;;12.30;10.60;;;;;;;20.92;59.97;101114.91;5084576;28;20442;-63
2022/06/05 10:29:09;;;;;;;13.18;11.27;;;;;;;20.93;59.84;101121.38;5091036;28;20085;-66
2022/06/05 10:31:37;;;;;;;13.57;10.50;;;;;;;20.92;60.61;101122.53;5084416;28;20028;-65
2022/06/05 10:34:28;;;;;;;12.07;10.48;;;;;;;20.93;60.13;101127.84;5085766;28;20032;-64
2022/06/05 10:37:13;;;;;;;14.15;10.23;;;;;;;20.95;60.17;101124.72;5080599;28;20596;-63
2022/06/05 10:39:53;;;;;;;12.00;10.90;;;;;;;20.91;60.23;101118.88;5080631;28;20365;-64
2022/06/05 10:42:37;;;;;;;15.15;13.05;;;;;;;20.88;60.97;101118.69;5081768;28;20027;-63
2022/06/05 10:45:44;;;;;;;11.38;10.27;;;;;;;20.91;60.47;101116.06;5086905;28;20031;-64
2022/06/05 10:48:16;;;;;;;15.23;13.63;;;;;;;20.84;62.26;101116.47;5074733;28;20048;-63
2022/06/05 10:50:50;;;;;;;13.25;11.75;;;;;;;20.87;62.68;101119.81;5083268;28;20036;-65
2022/06/05 10:53:28;;;;;;;12.85;11.57;;;;;;;20.85;61.80;101111.66;5080070;28;20060;-64
2022/06/05 10:56:16;;;;;;;13.57;12.32;;;;;;;20.82;61.90;101115.94;5080714;28;20032;-64
2022/06/05 10:58:59;;;;;;;13.82;12.32;;;;;;;20.82;61.72;101110.31;5077907;28;20024;-61
2022/06/05 11:01:32;;;;;;;15.38;13.93;;;;;;;20.79;63.26;101116.59;5083021;28;20028;-63
2022/06/05 11:04:00;;;;;;;13.32;12.05;;;;;;;20.75;62.94;101109.94;5068680;28;20048;-64
2022/06/05 11:07:05;;;;;;;15.07;13.52;;;;;;;20.74;62.98;101108.22;5081208;28;20035;-63
2022/06/05 11:09:39;;;;;;;21.25;15.55;;;;;;;20.68;64.85;101103.88;5086863;28;20032;-62
2022/06/05 11:15:45;;;;;;;16.70;15.10;;;;;;;20.66;64.11;101106.16;5077248;28;20038;-63
2022/06/05 11:18:16;;;;;;;18.25;16.55;;;;;;;20.58;67.17;101107.72;5066943;28;20040;-63
2022/06/05 11:20:50;;;;;;;18.08;16.25;;;;;;;20.52;67.82;101111.00;5082493;28;20567;-62
2022/06/05 11:23:22;;;;;;;22.20;18.05;;;;;;;20.45;68.75;101102.91;5078627;28;20020;-63
2022/06/05 11:26:04;;;;;;;24.27;18.67;;;;;;;20.40;69.69;101096.56;5082759;28;20205;-62
2022/06/05 11:28:41;;;;;;;22.48;18.65;;;;;;;20.36;69.67;101093.53;5081169;28;20115;-62
2022/06/05 11:31:38;;;;;;;21.88;19.60;;;;;;;20.35;69.92;101089.84;5076623;28;20395;-64
2022/06/05 11:34:37;;;;;;;21.20;18.58;;;;;;;20.34;68.60;101092.97;5084147;28;20039;-64
2022/06/05 11:37:30;;;;;;;20.17;18.10;;;;;;;20.24;70.38;101079.94;5079847;28;20040;-63
2022/06/05 11:40:31;;;;;;;21.85;17.58;;;;;;;20.31;68.70;101082.31;5086681;28;20164;-63
2022/06/05 11:43:36;;;;;;;19.90;17.85;;;;;;;20.27;68.90;101082.13;5062135;28;20067;-64
2022/06/05 11:46:08;;;;;;;19.80;17.77;;;;;;;20.16;71.69;101083.50;5029628;28;20033;-64
2022/06/05 11:48:45;;;;;;;20.20;18.35;;;;;;;20.09;71.97;101080.25;5079404;28;20237;-62
2022/06/05 11:51:26;;;;;;;20.27;18.15;;;;;;;20.09;71.99;101077.44;5081051;28;20039;-62
2022/06/05 11:53:56;;;;;;;21.52;19.23;;;;;;;20.07;73.00;101076.88;5088688;28;20047;-62
2022/06/05 11:56:33;;;;;;;21.88;19.83;;;;;;;20.08;71.90;101076.59;5087786;28;20471;-61
2022/06/05 11:59:16;;;;;;;21.50;19.25;;;;;;;20.06;72.35;101076.06;5086322;28;20028;-61
2022/06/05 12:01:46;;;;;;;24.75;20.63;;;;;;;20.06;72.43;101080.88;5088647;28;20046;-62
2022/06/05 12:04:28;;;;;;;24.42;22.17;;;;;;;20.02;72.76;101071.38;5079018;28;20526;-61
2022/06/05 12:06:55;;;;;;;;;;;;;;;20.18;69.10;101072.72;5088852;28;20043;-61